Time;durP1;ratioP1;P1;durP2;ratioP2;P2;SDS_P1;SDS_P2;PMS_P1;PMS_P2;Temp;Humidity;BMP_temperature;BMP_pressure;BME280_temperature;BME280_humidity;BME280_pressure;Samples;Min_cycle;Max_cycle;Signal;HPM_P1;HPM_P2
2023/08/10 00:01:52;;;;;;;1.83;1.27;;;21.20;42.50;;;;;;5054259;28;20447;-65
2023/08/10 00:04:20;;;;;;;3.13;1.58;;;21.10;42.00;;;;;;5055215;28;20476;-64
2023/08/10 00:06:48;;;;;;;1.85;1.27;;;20.60;43.30;;;;;;5053643;28;20520;-64
2023/08/10 00:09:15;;;;;;;3.70;1.40;;;21.20;42.90;;;;;;5054599;28;20021;-65
2023/08/10 00:11:43;;;;;;;1.92;1.50;;;21.60;42.30;;;;;;5053935;28;20032;-65
2023/08/10 00:14:10;;;;;;;2.67;1.48;;;21.10;42.50;;;;;;5055038;28;20025;-64
2023/08/10 00:16:38;;;;;;;2.72;1.55;;;21.30;42.50;;;;;;5055001;28;20108;-64
2023/08/10 00:19:06;;;;;;;2.58;1.38;;;21.40;43.10;;;;;;5054121;28;20025;-65
2023/08/10 00:21:33;;;;;;;2.30;1.58;;;22.00;41.70;;;;;;5055031;28;20016;-63
2023/08/10 00:24:01;;;;;;;3.03;1.40;;;22.00;41.50;;;;;;5053889;28;20033;-63
2023/08/10 00:26:28;;;;;;;2.38;1.40;;;21.70;42.40;;;;;;5054880;28;20024;-63
2023/08/10 00:28:56;;;;;;;3.67;1.40;;;22.10;42.20;;;;;;5054471;28;20100;-58
2023/08/10 00:31:24;;;;;;;3.17;1.63;;;22.30;41.00;;;;;;5054787;28;20358;-58
2023/08/10 00:33:51;;;;;;;1.90;1.58;;;22.60;41.80;;;;;;5054155;28;20447;-56
2023/08/10 00:36:19;;;;;;;2.47;1.40;;;22.30;40.60;;;;;;5053712;28;20048;-57
2023/08/10 00:38:46;;;;;;;2.65;1.55;;;22.30;41.40;;;;;;5054669;28;20024;-55
2023/08/10 00:41:14;;;;;;;3.00;1.60;;;22.00;41.40;;;;;;5054647;28;20036;-56
2023/08/10 00:43:42;;;;;;;3.22;1.58;;;21.90;41.40;;;;;;5053480;28;20067;-56
2023/08/10 00:46:12;;;;;;;3.50;1.48;;;22.10;41.40;;;;;;5053656;28;20443;-57
2023/08/10 00:48:40;;;;;;;3.67;1.58;;;22.70;40.40;;;;;;5053637;28;20155;-57
2023/08/10 00:51:07;;;;;;;2.13;1.38;;;22.70;40.10;;;;;;5054555;28;20351;-57
2023/08/10 00:53:36;;;;;;;4.80;1.48;;;22.60;40.10;;;;;;5053550;28;20024;-58
2023/08/10 00:56:05;;;;;;;3.40;1.40;;;22.70;40.60;;;;;;5053598;28;20025;-57
2023/08/10 00:58:34;;;;;;;3.75;1.50;;;23.00;40.00;;;;;;5054357;28;20075;-58
2023/08/10 01:01:01;;;;;;;2.72;1.73;;;22.60;40.80;;;;;;5054615;28;20466;-58
2023/08/10 01:03:29;;;;;;;2.78;1.60;;;23.10;39.80;;;;;;5054206;28;20386;-58
2023/08/10 01:06:09;;;;;;;3.25;1.55;;;23.10;39.90;;;;;;5054475;28;20395;-58
2023/08/10 01:08:59;;;;;;;2.38;1.42;;;22.70;40.30;;;;;;5054393;28;20402;-58
2023/08/10 01:11:58;;;;;;;1.90;1.40;;;22.90;40.40;;;;;;5054488;28;20035;-58
2023/08/10 01:14:32;;;;;;;3.58;1.38;;;22.80;40.80;;;;;;5057389;28;20447;-58
2023/08/10 01:17:03;;;;;;;3.25;1.45;;;23.30;40.00;;;;;;5058161;28;20031;-58
2023/08/10 01:19:38;;;;;;;3.67;1.30;;;23.40;39.70;;;;;;5058158;28;20117;-58
2023/08/10 01:22:16;;;;;;;3.35;1.20;;;23.20;39.80;;;;;;5057102;28;20036;-57
2023/08/10 01:24:46;;;;;;;2.78;1.35;;;23.80;39.60;;;;;;5058129;28;20031;-58
2023/08/10 01:27:15;;;;;;;2.97;1.52;;;23.70;39.30;;;;;;5057954;28;20377;-57
2023/08/10 01:29:43;;;;;;;2.53;1.50;;;24.40;39.00;;;;;;5058042;28;20032;-58
2023/08/10 01:32:14;;;;;;;5.18;1.20;;;24.80;38.50;;;;;;5057894;28;20017;-58
2023/08/10 01:34:42;;;;;;;1.50;1.00;;;24.70;37.70;;;;;;5056802;28;20025;-58
2023/08/10 01:37:09;;;;;;;2.90;1.20;;;24.40;37.20;;;;;;5056703;28;20112;-57
2023/08/10 01:39:37;;;;;;;3.65;1.20;;;24.20;37.20;;;;;;5056841;28;20021;-57
2023/08/10 01:42:04;;;;;;;2.22;1.00;;;24.60;36.80;;;;;;5057626;28;20447;-57
2023/08/10 01:44:32;;;;;;;2.95;1.10;;;24.50;37.10;;;;;;5056657;28;20033;-58
2023/08/10 01:47:04;;;;;;;1.42;1.10;;;24.80;36.40;;;;;;5056500;28;20457;-58
2023/08/10 01:49:34;;;;;;;2.67;1.23;;;24.90;36.20;;;;;;5057318;28;20382;-58
2023/08/10 01:52:06;;;;;;;2.67;1.48;;;25.30;35.60;;;;;;5057436;28;20040;-58
2023/08/10 01:54:36;;;;;;;;;;;25.40;35.90;;;;;;5056806;28;20462;-63
2023/08/10 01:57:04;;;;;;;2.42;1.02;;;24.90;36.10;;;;;;5057284;28;19939;-62
2023/08/10 01:59:35;;;;;;;2.90;1.20;;;24.60;36.30;;;;;;5057069;28;20043;-62
2023/08/10 02:02:03;;;;;;;1.70;1.10;;;24.20;37.10;;;;;;5057152;28;20025;-62
2023/08/10 02:04:30;;;;;;;2.58;1.10;;;23.90;37.70;;;;;;5056229;28;20044;-62
2023/08/10 02:06:58;;;;;;;1.77;1.20;;;23.90;37.80;;;;;;5055642;28;20090;-62
2023/08/10 02:09:25;;;;;;;3.13;1.10;;;23.70;38.60;;;;;;5056141;28;20067;-63
2023/08/10 02:11:53;;;;;;;6.75;1.08;;;23.40;37.30;;;;;;5057257;28;20025;-63
2023/08/10 02:14:20;;;;;;;2.08;0.90;;;23.40;35.60;;;;;;5056797;28;20025;-63
2023/08/10 02:16:48;;;;;;;1.95;0.90;;;23.40;35.10;;;;;;5056882;28;20033;-63
2023/08/10 02:19:15;;;;;;;3.25;1.10;;;23.20;35.10;;;;;;5056979;28;20036;-62
2023/08/10 02:21:43;;;;;;;2.58;1.00;;;23.10;34.70;;;;;;5055562;28;20029;-62
2023/08/10 02:24:11;;;;;;;3.97;1.08;;;23.00;35.30;;;;;;5055950;28;20025;-62
2023/08/10 02:26:39;;;;;;;2.40;0.90;;;23.10;35.00;;;;;;5056782;28;20025;-60
2023/08/10 02:29:08;;;;;;;3.92;1.10;;;23.60;34.30;;;;;;5056548;28;20021;-58
2023/08/10 02:31:36;;;;;;;3.47;1.13;;;24.50;33.30;;;;;;5056763;28;20028;-58
2023/08/10 02:34:03;;;;;;;3.45;1.30;;;25.10;33.00;;;;;;5056778;28;20067;-57
2023/08/10 02:36:31;;;;;;;3.33;1.25;;;24.80;33.30;;;;;;5055684;28;20075;-58
2023/08/10 02:38:59;;;;;;;3.40;1.45;;;25.00;33.20;;;;;;5056748;28;20496;-58
2023/08/10 02:41:26;;;;;;;3.50;1.40;;;25.60;33.10;;;;;;5055732;28;20029;-58
2023/08/10 02:43:54;;;;;;;2.67;1.20;;;25.20;33.40;;;;;;5056479;28;20482;-58
2023/08/10 02:46:21;;;;;;;3.10;1.33;;;25.10;33.30;;;;;;5056533;28;20024;-57
2023/08/10 02:48:49;;;;;;;2.42;1.48;;;25.40;33.30;;;;;;5055365;28;20025;-57
2023/08/10 02:51:17;;;;;;;3.15;1.40;;;25.60;32.70;;;;;;5055497;28;20500;-56
2023/08/10 02:53:45;;;;;;;4.68;1.20;;;24.10;34.40;;;;;;5055416;28;20116;-59
2023/08/10 02:56:13;;;;;;;3.97;1.65;;;23.60;35.30;;;;;;5056299;28;20363;-59
2023/08/10 02:58:40;;;;;;;2.75;1.10;;;23.60;35.20;;;;;;5071940;28;20042;-60
2023/08/10 03:01:08;;;;;;;2.72;1.10;;;24.70;34.00;;;;;;5054866;28;20052;-59
2023/08/10 03:03:36;;;;;;;2.53;1.08;;;25.20;33.30;;;;;;5055949;28;20028;-60
2023/08/10 03:06:04;;;;;;;2.60;1.10;;;25.40;33.00;;;;;;5054940;28;20051;-59
2023/08/10 03:08:32;;;;;;;3.05;1.00;;;25.40;33.20;;;;;;5056290;28;20028;-59
2023/08/10 03:10:59;;;;;;;1.95;0.85;;;24.70;33.60;;;;;;5056047;28;20411;-59
2023/08/10 03:13:27;;;;;;;1.70;1.00;;;24.40;34.50;;;;;;5055975;28;20029;-59
2023/08/10 03:15:55;;;;;;;1.52;0.90;;;25.00;33.20;;;;;;5056032;28;20059;-59
2023/08/10 03:18:23;;;;;;;2.28;0.82;;;25.00;32.50;;;;;;5055868;28;20021;-58
2023/08/10 03:20:50;;;;;;;1.35;0.80;;;25.00;32.20;;;;;;5055950;28;20028;-58
2023/08/10 03:23:18;;;;;;;1.73;0.90;;;25.20;32.30;;;;;;5055788;28;20465;-58
2023/08/10 03:25:46;;;;;;;1.85;1.10;;;25.60;32.70;;;;;;5054915;28;20029;-58
2023/08/10 03:28:13;;;;;;;1.45;0.90;;;25.60;32.00;;;;;;5054763;28;20329;-59
2023/08/10 03:30:41;;;;;;;2.38;1.05;;;25.90;32.40;;;;;;5055763;28;20071;-58
2023/08/10 03:33:08;;;;;;;1.17;0.85;;;25.90;31.80;;;;;;5054811;28;20047;-58
2023/08/10 03:35:36;;;;;;;2.00;1.00;;;25.30;32.30;;;;;;5053809;28;20036;-59
2023/08/10 03:38:04;;;;;;;3.08;0.90;;;25.30;32.60;;;;;;5055579;28;20091;-60
2023/08/10 03:40:40;;;;;;;3.15;1.15;;;25.10;33.00;;;;;;5055881;28;20108;-62
2023/08/10 03:43:15;;;;;;;6.95;1.20;;;24.70;33.10;;;;;;5055332;28;20537;-60
2023/08/10 03:45:51;;;;;;;2.10;1.45;;;25.40;32.70;;;;;;5055001;28;20394;-61
2023/08/10 03:48:19;;;;;;;1.23;0.90;;;25.70;32.20;;;;;;5054165;28;20017;-59
2023/08/10 03:50:46;;;;;;;3.35;2.00;;;25.70;31.90;;;;;;5053871;28;20033;-62
2023/08/10 03:53:14;;;;;;;4.38;1.20;;;25.60;32.10;;;;;;5055094;28;20025;-62
2023/08/10 03:55:41;;;;;;;1.90;0.85;;;25.10;32.90;;;;;;5055267;28;20067;-63
2023/08/10 03:58:09;;;;;;;2.53;1.10;;;25.10;32.70;;;;;;5055140;28;20033;-61
2023/08/10 04:00:37;;;;;;;1.02;0.77;;;24.60;33.20;;;;;;5055191;28;20024;-62
2023/08/10 04:03:04;;;;;;;1.42;0.90;;;24.60;33.40;;;;;;5054111;28;20056;-62
2023/08/10 04:05:32;;;;;;;1.58;1.00;;;24.30;33.40;;;;;;5053923;28;20068;-62
2023/08/10 04:08:00;;;;;;;2.92;0.90;;;23.90;33.70;;;;;;5053928;28;20021;-61
2023/08/10 04:10:27;;;;;;;1.85;0.98;;;23.60;34.20;;;;;;5053896;28;20151;-63
2023/08/10 04:12:55;;;;;;;1.52;1.00;;;23.30;35.00;;;;;;5054881;28;20029;-62
2023/08/10 04:15:23;;;;;;;1.08;0.73;;;23.40;35.10;;;;;;5053868;28;20039;-62
2023/08/10 04:17:50;;;;;;;2.15;0.90;;;23.20;35.00;;;;;;5053773;28;20036;-63
2023/08/10 04:20:18;;;;;;;1.20;0.90;;;23.30;35.00;;;;;;5054885;28;20025;-62
2023/08/10 04:22:45;;;;;;;1.80;0.80;;;23.30;35.20;;;;;;5054757;28;20033;-62
2023/08/10 04:25:13;;;;;;;2.88;0.85;;;23.30;35.00;;;;;;5053950;28;20021;-63
2023/08/10 04:27:41;;;;;;;3.60;2.08;;;23.10;35.50;;;;;;5054835;28;20025;-64
2023/08/10 04:30:09;;;;;;;1.50;0.90;;;22.70;36.00;;;;;;5053886;28;20078;-63
2023/08/10 04:32:37;;;;;;;1.23;0.80;;;22.60;36.00;;;;;;5053929;28;20347;-63
2023/08/10 04:35:06;;;;;;;2.17;0.90;;;22.80;35.80;;;;;;5054810;28;20025;-63
2023/08/10 04:37:33;;;;;;;1.85;0.80;;;22.70;36.20;;;;;;5053752;28;20044;-63
2023/08/10 04:40:04;;;;;;;4.20;1.05;;;22.60;36.30;;;;;;5054763;28;20074;-63
2023/08/10 04:42:32;;;;;;;3.00;1.30;;;23.20;35.80;;;;;;5054838;28;20052;-61
2023/08/10 04:44:59;;;;;;;1.55;0.82;;;23.90;34.30;;;;;;5053736;28;20017;-61
2023/08/10 04:47:27;;;;;;;1.38;0.90;;;24.00;35.00;;;;;;5055240;28;20021;-61
2023/08/10 04:49:55;;;;;;;3.83;1.00;;;24.30;34.30;;;;;;5058832;28;20348;-61
2023/08/10 04:52:23;;;;;;;1.42;1.00;;;23.70;34.60;;;;;;5058699;28;20044;-64
2023/08/10 04:54:53;;;;;;;1.63;1.20;;;23.10;35.60;;;;;;5057377;28;20402;-58
2023/08/10 04:57:20;;;;;;;2.72;1.00;;;24.10;34.50;;;;;;5057322;28;20451;-58
2023/08/10 04:59:48;;;;;;;1.77;0.90;;;25.10;33.30;;;;;;5057572;28;20047;-58
2023/08/10 05:02:16;;;;;;;1.63;0.98;;;25.20;33.20;;;;;;5057543;28;20359;-58
2023/08/10 05:04:47;;;;;;;1.30;0.93;;;25.10;33.10;;;;;;5058460;28;20119;-58
2023/08/10 05:07:15;;;;;;;2.83;0.98;;;25.00;33.00;;;;;;5057252;28;20056;-58
2023/08/10 05:09:43;;;;;;;1.90;1.15;;;25.50;32.60;;;;;;5057904;28;20029;-60
2023/08/10 05:12:10;;;;;;;2.92;0.90;;;25.10;32.40;;;;;;5057484;28;20447;-60
2023/08/10 05:14:38;;;;;;;2.70;0.80;;;25.80;31.90;;;;;;5057374;28;20052;-61
2023/08/10 05:17:05;;;;;;;1.25;1.08;;;25.70;31.80;;;;;;5058242;28;20021;-61
2023/08/10 05:19:32;;;;;;;2.63;0.90;;;25.10;32.50;;;;;;5057544;28;20017;-68
2023/08/10 05:22:00;;;;;;;2.00;0.70;;;25.40;32.50;;;;;;5055899;28;20021;-61
2023/08/10 05:24:27;;;;;;;3.17;0.90;;;25.30;32.60;;;;;;5071617;28;20467;-61
2023/08/10 05:26:55;;;;;;;1.83;0.75;;;25.40;32.70;;;;;;5072288;28;20033;-61
2023/08/10 05:29:22;;;;;;;1.58;0.75;;;25.00;32.30;;;;;;5056865;28;20277;-62
2023/08/10 05:31:50;;;;;;;2.75;0.90;;;24.90;32.50;;;;;;5057762;28;20347;-61
2023/08/10 05:34:18;;;;;;;2.13;0.90;;;25.80;31.40;;;;;;5057742;28;20025;-61
2023/08/10 05:36:45;;;;;;;1.70;0.90;;;26.30;31.20;;;;;;5057814;28;20028;-64
2023/08/10 05:39:13;;;;;;;1.92;0.70;;;25.60;31.40;;;;;;5057866;28;20321;-65
2023/08/10 05:41:41;;;;;;;1.60;0.80;;;25.50;31.20;;;;;;5057655;28;20032;-62
2023/08/10 05:44:08;;;;;;;2.63;0.98;;;26.30;30.90;;;;;;5056047;28;20098;-62
2023/08/10 05:46:36;;;;;;;1.90;0.93;;;25.70;31.40;;;;;;5057596;28;20017;-63
2023/08/10 05:49:04;;;;;;;2.92;1.20;;;25.20;32.00;;;;;;5057647;28;20021;-62
2023/08/10 05:51:32;;;;;;;2.60;1.10;;;25.10;32.10;;;;;;5056647;28;20016;-64
2023/08/10 05:54:02;;;;;;;1.65;1.00;;;25.60;32.00;;;;;;5056209;28;20051;-63
2023/08/10 05:56:30;;;;;;;1.73;0.90;;;26.80;30.50;;;;;;5055493;28;20044;-66
2023/08/10 05:58:57;;;;;;;2.17;1.10;;;26.60;30.30;;;;;;5054559;28;20029;-67
2023/08/10 06:01:25;;;;;;;1.90;0.98;;;27.70;29.50;;;;;;5057105;28;20057;-66
2023/08/10 06:03:54;;;;;;;2.95;1.10;;;27.00;29.20;;;;;;5056926;28;20040;-66
2023/08/10 06:06:21;;;;;;;1.70;0.85;;;27.50;28.70;;;;;;5056073;28;20087;-66
2023/08/10 06:08:55;;;;;;;3.25;1.10;;;27.70;27.50;;;;;;5056318;28;20451;-63
2023/08/10 06:11:28;;;;;;;2.92;1.00;;;27.70;27.20;;;;;;5057221;28;20036;-65
2023/08/10 06:13:55;;;;;;;2.10;0.90;;;26.50;27.20;;;;;;5057296;28;20397;-64
2023/08/10 06:16:23;;;;;;;2.35;0.90;;;26.20;27.30;;;;;;5055923;28;20064;-64
2023/08/10 06:18:51;;;;;;;1.90;0.70;;;26.20;26.60;;;;;;5055858;28;20025;-63
2023/08/10 06:21:19;;;;;;;1.27;0.63;;;24.40;28.20;;;;;;5055979;28;20021;-63
2023/08/10 06:23:47;;;;;;;1.60;0.90;;;22.40;29.80;;;;;;5055668;28;20029;-64
2023/08/10 06:26:15;;;;;;;1.17;0.50;;;21.90;30.20;;;;;;5055970;28;20328;-64
2023/08/10 06:28:43;;;;;;;2.22;0.80;;;21.60;29.80;;;;;;5056790;28;20032;-64
2023/08/10 06:31:11;;;;;;;2.10;0.70;;;21.40;29.60;;;;;;5056577;28;20032;-64
2023/08/10 06:33:39;;;;;;;1.00;0.60;;;21.10;29.60;;;;;;5055527;28;20443;-64
2023/08/10 06:36:10;;;;;;;1.85;0.73;;;21.10;29.30;;;;;;5055575;28;20498;-64
2023/08/10 06:38:38;;;;;;;2.53;0.82;;;21.00;29.80;;;;;;5056372;28;20029;-64
2023/08/10 06:41:05;;;;;;;0.88;0.50;;;20.80;28.90;;;;;;5055497;28;20114;-64
2023/08/10 06:43:33;;;;;;;1.38;0.60;;;20.80;29.30;;;;;;5056472;28;20035;-64
2023/08/10 06:46:00;;;;;;;1.50;0.60;;;20.60;29.00;;;;;;5056303;28;20078;-65
2023/08/10 06:48:30;;;;;;;1.48;0.80;;;20.60;29.10;;;;;;5056302;28;20025;-64
2023/08/10 06:50:57;;;;;;;1.50;0.85;;;20.50;29.40;;;;;;5055890;28;20329;-65
2023/08/10 06:53:25;;;;;;;3.25;0.88;;;20.40;29.60;;;;;;5056335;28;20455;-65
2023/08/10 06:55:52;;;;;;;2.53;0.60;;;20.30;29.70;;;;;;5054935;28;20036;-64
2023/08/10 06:58:20;;;;;;;2.17;0.90;;;20.20;29.60;;;;;;5055816;28;20067;-64
2023/08/10 07:00:53;;;;;;;0.93;0.52;;;20.20;30.10;;;;;;5056154;28;20603;-65
2023/08/10 07:03:20;;;;;;;1.67;0.80;;;20.10;29.80;;;;;;5055293;28;20451;-66
2023/08/10 07:05:49;;;;;;;1.48;0.80;;;20.00;30.10;;;;;;5054712;28;20053;-65
2023/08/10 07:08:20;;;;;;;1.67;0.80;;;19.90;30.50;;;;;;5055185;28;20355;-67
2023/08/10 07:10:52;;;;;;;1.65;0.70;;;19.80;30.60;;;;;;5055079;28;20108;-66
2023/08/10 07:13:20;;;;;;;1.20;0.90;;;19.70;30.80;;;;;;5056424;28;20347;-65
2023/08/10 07:15:48;;;;;;;1.48;0.90;;;19.60;31.30;;;;;;5054802;28;20071;-66
2023/08/10 07:18:18;;;;;;;1.63;0.70;;;19.50;31.60;;;;;;5055336;28;20467;-65
2023/08/10 07:20:46;;;;;;;1.83;0.75;;;19.50;31.90;;;;;;5054357;28;20272;-66
2023/08/10 07:23:17;;;;;;;1.30;0.50;;;19.30;32.10;;;;;;5055404;28;20040;-67
2023/08/10 07:25:47;;;;;;;1.17;0.65;;;19.20;32.30;;;;;;5055549;28;20021;-68
2023/08/10 07:28:15;;;;;;;2.60;1.05;;;19.20;32.50;;;;;;5070741;28;20021;-62
2023/08/10 07:30:47;;;;;;;1.55;0.77;;;19.10;32.70;;;;;;5055058;28;20060;-61
2023/08/10 07:33:15;;;;;;;4.38;0.90;;;19.00;33.30;;;;;;5054963;28;20066;-61
2023/08/10 07:35:43;;;;;;;1.48;0.75;;;18.80;33.40;;;;;;5055356;28;20363;-62
2023/08/10 07:38:10;;;;;;;3.40;0.90;;;18.70;33.60;;;;;;5055131;28;20041;-62
2023/08/10 07:40:38;;;;;;;4.13;1.33;;;18.60;33.90;;;;;;5054140;28;20025;-62
2023/08/10 07:43:06;;;;;;;3.13;0.90;;;18.50;34.70;;;;;;5053581;28;20108;-61
2023/08/10 07:45:33;;;;;;;1.95;0.60;;;18.40;35.00;;;;;;5053685;28;20024;-61
2023/08/10 07:48:01;;;;;;;2.00;0.75;;;18.50;35.20;;;;;;5055009;28;20029;-61
2023/08/10 07:50:29;;;;;;;2.47;1.00;;;18.30;35.60;;;;;;5054035;28;20052;-66
2023/08/10 07:52:59;;;;;;;2.38;0.77;;;18.20;36.20;;;;;;5053729;28;20029;-66
2023/08/10 07:55:27;;;;;;;1.83;0.80;;;18.20;36.20;;;;;;5054354;28;20033;-61
2023/08/10 07:57:55;;;;;;;2.20;1.00;;;18.10;36.50;;;;;;5054611;28;20025;-67
2023/08/10 08:00:22;;;;;;;1.33;0.80;;;18.00;36.80;;;;;;5053831;28;20025;-66
2023/08/10 08:02:50;;;;;;;2.75;1.10;;;17.90;37.10;;;;;;5053767;28;20021;-61
2023/08/10 08:05:18;;;;;;;2.17;1.10;;;17.80;37.50;;;;;;5054484;28;20031;-68
2023/08/10 08:07:45;;;;;;;3.00;1.00;;;17.70;37.80;;;;;;5053105;28;20067;-67
2023/08/10 08:10:13;;;;;;;1.42;0.70;;;17.60;38.20;;;;;;5053371;28;20511;-67
2023/08/10 08:12:40;;;;;;;2.28;0.90;;;17.60;38.50;;;;;;5053379;28;20039;-68
2023/08/10 08:15:08;;;;;;;2.03;1.02;;;17.60;38.80;;;;;;5053396;28;20120;-68
2023/08/10 08:18:12;;;;;;;3.85;1.10;;;17.50;39.10;;;;;;5054536;28;20112;-68
2023/08/10 08:20:40;;;;;;;3.20;0.95;;;17.50;39.30;;;;;;5054584;28;20039;-68
2023/08/10 08:23:08;;;;;;;1.60;0.80;;;17.40;39.70;;;;;;5052891;28;20032;-67
2023/08/10 08:25:35;;;;;;;4.13;1.05;;;17.40;39.90;;;;;;5054408;28;20022;-67
2023/08/10 08:28:03;;;;;;;3.10;0.90;;;17.30;40.20;;;;;;5054414;28;20021;-67
2023/08/10 08:30:31;;;;;;;2.72;0.95;;;17.20;40.20;;;;;;5054102;28;20021;-68
2023/08/10 08:32:59;;;;;;;1.95;0.75;;;17.10;40.30;;;;;;5052337;28;20617;-61
2023/08/10 08:35:26;;;;;;;2.03;0.63;;;17.10;40.10;;;;;;5053803;28;20451;-68
2023/08/10 08:37:54;;;;;;;2.10;0.80;;;17.10;40.30;;;;;;5052670;28;20025;-68
2023/08/10 08:40:23;;;;;;;1.38;0.70;;;17.10;40.50;;;;;;5054387;28;20036;-68
2023/08/10 08:42:50;;;;;;;2.08;0.75;;;17.00;40.60;;;;;;5053381;28;20120;-68
2023/08/10 08:45:18;;;;;;;1.42;0.93;;;17.00;40.80;;;;;;5053313;28;20044;-67
2023/08/10 08:47:46;;;;;;;1.65;0.70;;;17.00;41.00;;;;;;5054378;28;20021;-67
2023/08/10 08:50:16;;;;;;;3.28;0.70;;;16.90;41.20;;;;;;5053377;28;20332;-67
2023/08/10 08:52:46;;;;;;;2.05;0.90;;;16.90;41.50;;;;;;5054380;28;20021;-67
2023/08/10 08:55:16;;;;;;;2.22;0.63;;;16.80;41.70;;;;;;5054417;28;20112;-68
2023/08/10 08:57:44;;;;;;;1.10;0.70;;;16.70;42.00;;;;;;5054394;28;20029;-68
2023/08/10 09:00:12;;;;;;;2.00;0.60;;;16.80;41.90;;;;;;5054320;28;20070;-67
2023/08/10 09:02:40;;;;;;;0.90;0.50;;;16.70;42.20;;;;;;5053054;28;20040;-67
2023/08/10 09:05:09;;;;;;;12.60;7.03;;;16.60;42.40;;;;;;5054038;28;20025;-67
2023/08/10 09:07:36;;;;;;;5.20;2.75;;;16.50;42.70;;;;;;5052552;28;20041;-67
2023/08/10 09:10:04;;;;;;;2.47;0.70;;;16.40;43.20;;;;;;5054060;28;20021;-66
2023/08/10 09:12:35;;;;;;;2.03;0.70;;;16.30;43.30;;;;;;5054356;28;20045;-66
2023/08/10 09:15:12;;;;;;;2.93;1.03;;;16.30;43.40;;;;;;5054414;28;20028;-67
2023/08/10 09:17:44;;;;;;;3.17;0.90;;;16.20;43.60;;;;;;5053329;28;20158;-67
2023/08/10 09:20:23;;;;;;;3.88;1.65;;;16.10;44.10;;;;;;5053256;28;20096;-67
2023/08/10 09:22:56;;;;;;;2.25;0.98;;;16.10;44.00;;;;;;5054163;28;20478;-66
2023/08/10 09:25:24;;;;;;;1.65;0.80;;;16.10;44.10;;;;;;5054253;28;20040;-68
2023/08/10 09:27:53;;;;;;;1.27;0.70;;;16.10;44.10;;;;;;5053190;28;20017;-67
2023/08/10 09:30:22;;;;;;;2.25;0.80;;;16.10;44.40;;;;;;5054212;28;20320;-68
2023/08/10 09:32:50;;;;;;;2.05;0.70;;;16.00;44.40;;;;;;5053473;28;20021;-67
2023/08/10 09:35:19;;;;;;;6.07;0.80;;;16.00;44.60;;;;;;5056951;28;20029;-67
2023/08/10 09:37:48;;;;;;;2.03;0.80;;;15.80;44.90;;;;;;5056549;28;20687;-67
2023/08/10 09:40:17;;;;;;;4.72;0.98;;;15.80;44.90;;;;;;5056563;28;20033;-66
2023/08/10 09:42:45;;;;;;;2.42;0.80;;;15.80;45.20;;;;;;5057784;28;20017;-66
2023/08/10 09:45:16;;;;;;;3.35;1.02;;;15.70;45.50;;;;;;5073130;28;20029;-66
2023/08/10 09:47:44;;;;;;;2.33;0.88;;;15.60;45.60;;;;;;5057562;28;20040;-66
2023/08/10 09:50:14;;;;;;;3.63;1.08;;;15.60;45.70;;;;;;5057651;28;20028;-66
2023/08/10 09:52:43;;;;;;;3.17;0.80;;;15.50;46.10;;;;;;5056655;28;20119;-66
2023/08/10 09:55:11;;;;;;;2.28;0.90;;;15.40;46.50;;;;;;5057536;28;20038;-67
2023/08/10 09:57:40;;;;;;;3.75;0.90;;;15.30;46.60;;;;;;5056373;28;20021;-67
2023/08/10 10:00:19;;;;;;;1.83;0.70;;;15.10;47.10;;;;;;5057201;28;20108;-65
2023/08/10 10:02:47;;;;;;;2.72;0.88;;;15.10;47.10;;;;;;5073438;28;20025;-67
2023/08/10 10:05:22;;;;;;;5.07;1.02;;;15.00;47.40;;;;;;5072496;28;20020;-66
2023/08/10 10:07:56;;;;;;;3.17;1.00;;;15.00;47.60;;;;;;5056055;28;20025;-67
2023/08/10 10:10:24;;;;;;;1.73;0.77;;;14.80;48.00;;;;;;5056179;28;20021;-67
2023/08/10 10:12:55;;;;;;;2.35;0.98;;;14.80;48.20;;;;;;5056927;28;20116;-62
2023/08/10 10:15:24;;;;;;;3.50;1.05;;;14.70;48.40;;;;;;5056728;28;20451;-66
2023/08/10 10:17:54;;;;;;;2.20;1.20;;;14.70;49.00;;;;;;5056563;28;20029;-61
2023/08/10 10:20:27;;;;;;;4.18;1.10;;;14.60;49.00;;;;;;5055223;28;20052;-67
2023/08/10 10:22:58;;;;;;;5.65;1.27;;;14.50;49.10;;;;;;5055768;28;20071;-69
2023/08/10 10:25:26;;;;;;;4.60;1.45;;;14.40;49.90;;;;;;5057053;28;20060;-67
2023/08/10 10:27:53;;;;;;;4.55;1.75;;;14.20;50.70;;;;;;5055951;28;20024;-66
2023/08/10 10:30:24;;;;;;;1.88;1.10;;;14.00;50.70;;;;;;5056004;28;20064;-67
2023/08/10 10:32:52;;;;;;;3.80;1.40;;;14.00;50.70;;;;;;5055946;28;20029;-66
2023/08/10 10:35:30;;;;;;;3.13;1.20;;;14.00;50.50;;;;;;5056808;28;20079;-66
2023/08/10 10:37:59;;;;;;;2.20;1.13;;;14.00;50.70;;;;;;5039081;28;20056;-66
2023/08/10 10:40:27;;;;;;;2.75;1.10;;;14.00;50.90;;;;;;5056915;28;20036;-67
2023/08/10 10:43:04;;;;;;;3.58;1.40;;;14.00;50.80;;;;;;5055806;28;20102;-69
2023/08/10 10:45:43;;;;;;;4.28;1.27;;;13.90;50.70;;;;;;5054999;28;20048;-68
2023/08/10 10:48:15;;;;;;;2.85;1.20;;;13.90;50.80;;;;;;5056545;28;20096;-66
2023/08/10 10:50:43;;;;;;;3.33;1.33;;;13.80;50.90;;;;;;5055542;28;20465;-63
2023/08/10 10:53:13;;;;;;;3.25;1.38;;;13.80;50.80;;;;;;5056105;28;20387;-62
2023/08/10 10:55:48;;;;;;;3.05;1.08;;;13.80;51.00;;;;;;5056503;28;20032;-62
2023/08/10 10:58:17;;;;;;;3.85;1.60;;;13.60;51.40;;;;;;5055431;28;20447;-63
2023/08/10 11:00:46;;;;;;;2.45;1.40;;;13.60;51.70;;;;;;5056509;28;20021;-63
2023/08/10 11:03:14;;;;;;;3.45;1.50;;;13.50;52.00;;;;;;5055391;28;20123;-63
2023/08/10 11:05:42;;;;;;;3.70;1.58;;;13.30;53.00;;;;;;5055335;28;20041;-63
2023/08/10 11:08:09;;;;;;;2.50;1.20;;;13.30;53.00;;;;;;5055296;28;20028;-63
2023/08/10 11:10:40;;;;;;;3.10;1.48;;;13.30;53.30;;;;;;5055293;28;20022;-63
2023/08/10 11:13:10;;;;;;;2.47;1.08;;;13.30;53.30;;;;;;5056365;28;20033;-63
2023/08/10 11:15:38;;;;;;;4.05;1.40;;;13.30;52.70;;;;;;5056154;28;20059;-63
2023/08/10 11:18:14;;;;;;;3.70;1.20;;;13.30;53.30;;;;;;5055116;28;20045;-63
2023/08/10 11:20:50;;;;;;;4.53;1.27;;;13.20;53.10;;;;;;5055068;28;20039;-62
2023/08/10 11:23:18;;;;;;;4.95;1.25;;;13.00;54.10;;;;;;5054924;28;20473;-62
2023/08/10 11:25:52;;;;;;;3.03;1.30;;;13.00;54.90;;;;;;5054999;28;20021;-63
2023/08/10 11:28:22;;;;;;;3.50;1.38;;;12.90;55.30;;;;;;5055860;28;20443;-63
2023/08/10 11:30:50;;;;;;;4.15;2.33;;;12.80;55.20;;;;;;5054903;28;20037;-61
2023/08/10 11:33:18;;;;;;;4.05;2.00;;;12.80;55.40;;;;;;5054880;28;20070;-63
2023/08/10 11:35:52;;;;;;;4.68;1.85;;;12.80;55.60;;;;;;5054801;28;20059;-63
2023/08/10 11:38:21;;;;;;;4.47;1.80;;;12.70;55.80;;;;;;5054690;28;20025;-63
2023/08/10 11:40:50;;;;;;;4.72;2.28;;;12.60;56.90;;;;;;5054727;28;20032;-63
2023/08/10 11:43:21;;;;;;;5.75;2.22;;;12.40;57.40;;;;;;5054469;28;20025;-63
2023/08/10 11:45:49;;;;;;;7.90;2.78;;;12.00;58.70;;;;;;5054685;28;20021;-63
2023/08/10 11:48:19;;;;;;;6.25;2.50;;;11.90;59.30;;;;;;5055533;28;20127;-63
2023/08/10 11:50:47;;;;;;;6.57;2.65;;;11.90;58.80;;;;;;5055703;28;20025;-63
2023/08/10 11:53:21;;;;;;;6.00;2.58;;;12.00;58.20;;;;;;5054429;28;20093;-63
2023/08/10 11:55:51;;;;;;;7.78;3.55;;;12.10;57.90;;;;;;5054248;28;20032;-63
2023/08/10 11:58:21;;;;;;;8.38;3.55;;;12.30;57.00;;;;;;5054122;28;20380;-62
2023/08/10 12:00:55;;;;;;;7.95;3.15;;;12.30;56.80;;;;;;5055326;28;20031;-63
2023/08/10 12:03:22;;;;;;;5.75;2.55;;;12.40;56.90;;;;;;5055324;28;20347;-63
2023/08/10 12:05:53;;;;;;;4.97;2.42;;;12.30;57.50;;;;;;5054110;28;20033;-63
2023/08/10 12:08:30;;;;;;;4.90;2.20;;;12.20;58.40;;;;;;5055261;28;20016;-63
2023/08/10 12:11:07;;;;;;;5.35;1.90;;;12.10;57.50;;;;;;5055321;28;20355;-63
2023/08/10 12:13:45;;;;;;;4.85;1.75;;;12.10;57.50;;;;;;5070941;28;20108;-62
2023/08/10 12:16:13;;;;;;;3.03;1.50;;;12.00;57.50;;;;;;5055280;28;20040;-63
2023/08/10 12:18:41;;;;;;;5.43;1.88;;;12.00;57.60;;;;;;5055195;28;20104;-63
2023/08/10 12:21:08;;;;;;;6.75;1.80;;;12.10;57.60;;;;;;5055134;28;20025;-62
2023/08/10 12:23:36;;;;;;;4.25;1.30;;;12.00;57.70;;;;;;5053986;28;20089;-62
2023/08/10 12:26:03;;;;;;;4.00;1.40;;;12.00;57.90;;;;;;5054944;28;20025;-62
2023/08/10 12:28:31;;;;;;;3.83;1.33;;;12.00;57.90;;;;;;5054908;28;20025;-62
2023/08/10 12:30:58;;;;;;;4.78;1.80;;;12.10;57.90;;;;;;5053945;28;20025;-63
2023/08/10 12:33:26;;;;;;;5.93;1.55;;;12.20;57.70;;;;;;5053840;28;20123;-63
2023/08/10 12:35:54;;;;;;;3.83;1.65;;;12.20;58.10;;;;;;5054907;28;20021;-62
2023/08/10 12:38:23;;;;;;;2.90;1.30;;;12.20;58.00;;;;;;5054961;28;20022;-62
2023/08/10 12:40:51;;;;;;;2.97;1.30;;;12.20;58.10;;;;;;5054935;28;20029;-62
2023/08/10 12:43:20;;;;;;;3.45;1.30;;;12.10;58.40;;;;;;5053837;28;20029;-63
2023/08/10 12:45:47;;;;;;;4.75;1.40;;;12.00;58.70;;;;;;5053893;28;20450;-63
2023/08/10 12:48:15;;;;;;;4.75;1.40;;;12.00;59.10;;;;;;5053970;28;20021;-63
2023/08/10 12:50:42;;;;;;;4.43;1.40;;;11.90;60.00;;;;;;5053854;28;20020;-62
2023/08/10 12:53:10;;;;;;;4.47;1.40;;;11.80;59.90;;;;;;5054020;28;20112;-63
2023/08/10 12:55:38;;;;;;;2.80;1.30;;;11.80;59.90;;;;;;5054929;28;20059;-63
2023/08/10 12:58:07;;;;;;;4.35;1.50;;;11.80;59.90;;;;;;5054777;28;20071;-62